Flight Track Log - Related Links

Times and Time Zones

All times are in EDT time to prevent confusion due to time zone crossing. See the SWA1103 flight status page for this flight to view local times or setup timezone preferences in your user account.

Time Position Orientation Groundspeed Altitude Reporting Facility
EDT Latitude Longitude Course Direction KTS MPH feet Rate Location/Type
Wed 06:09:35 PM 39.1500 -76.7000 293° West 206 237 3,200  Level Potomac TRACON
Wed 06:10:42 PM 39.1833 -76.8000 293° West 246 283 7,400 3,620 Climbing Potomac TRACON
Wed 06:11:36 PM 39.2000 -76.8667 288° West 245 282 10,500 3,421 Climbing Potomac TRACON
Wed 06:12:36 PM 39.2167 -76.9500 284° West 254 292 13,900 2,281 Climbing Potomac TRACON
Wed 06:13:37 PM 39.2167 -77.0667 270° West 313 360 15,100 1,934 Climbing Potomac TRACON
Wed 06:14:37 PM 39.1833 -77.1833 250° West 349 402 17,800 2,481 Climbing Potomac TRACON
Wed 06:16:19 PM 39.0494 -77.2942 213° Southwest 362 417 21,800 1,926 Climbing Washington Center
Wed 06:17:19 PM 38.9894 -77.3969 233° Southwest 357 411 23,000 1,500 Climbing Washington Center
Wed 06:18:19 PM 38.9686 -77.5272 258° West 349 402 24,800 1,700 Climbing Washington Center
Wed 06:19:19 PM 38.9478 -77.6628 259° West 385 443 26,400 1,100 Climbing Washington Center
Wed 06:20:19 PM 38.9453 -77.8042 269° West 395 455 27,000 700 Climbing Washington Center
Wed 06:21:19 PM 38.9511 -77.9378 273° West 416 479 27,800 1,300 Climbing Washington Center
Wed 06:22:19 PM 38.9564 -78.0847 273° West 416 479 29,600 1,800 Climbing Washington Center
Wed 06:23:19 PM 38.9617 -78.2292 273° West 421 484 31,400 1,850 Climbing Washington Center
Wed 06:24:19 PM 38.9644 -78.3761 271° West 421 484 33,300 2,200 Climbing Washington Center
Wed 06:25:19 PM 38.9697 -78.5153 273° West 411 473 35,800 2,300 Climbing Washington Center
Wed 06:26:19 PM 38.9747 -78.6436 273° West 391 450 37,900 1,100 Climbing Washington Center
Wed 06:27:19 PM 38.9778 -78.7692 272° West 372 428 38,000 50 Climbing Washington Center
Wed 06:28:19 PM 38.9806 -78.8950 272° West 365 420 38,000  Level Washington Center
Wed 06:29:19 PM 38.9856 -79.0206 273° West 365 420 38,000  Level Washington Center
Wed 06:30:19 PM 38.9881 -79.1489 271° West 365 420 38,000  Level Washington Center
Wed 06:31:19 PM 38.9906 -79.2744 272° West 365 420 38,000  Level Washington Center
Wed 06:32:19 PM 38.9950 -79.3978 273° West 365 420 38,000  Level Washington Center
Wed 06:33:19 PM 38.9972 -79.5206 271° West 360 414 38,000  Level Washington Center
Wed 06:34:19 PM 39.0008 -79.6625 272° West 360 414 38,000  Level Washington Center
Wed 06:35:19 PM 39.0008 -79.7853 270° West 360 414 38,000  Level Washington Center
Wed 06:36:51 PM 39.0025 -79.9625 271° West 337 388 38,000  Level Indianapolis Center
Wed 06:37:53 PM 39.0039 -80.0786 271° West 336 387 38,000  Level Indianapolis Center
Wed 06:38:55 PM 39.0067 -80.2028 272° West 337 388 38,000  Level Indianapolis Center
Wed 06:39:58 PM 39.0081 -80.3239 271° West 339 390 38,000  Level Indianapolis Center
Wed 06:41:00 PM 39.0097 -80.4444 271° West 339 390 38,000  Level Indianapolis Center
Wed 06:42:02 PM 39.0117 -80.5656 271° West 339 390 38,000  Level Indianapolis Center
Wed 06:43:04 PM 39.0131 -80.6872 271° West 342 394 38,000  Level Indianapolis Center
Wed 06:44:06 PM 39.0197 -80.8319 273° West 340 391 38,000  Level Indianapolis Center
Wed 06:45:08 PM 39.0694 -80.9467 299° West 364 419 38,000  Level Indianapolis Center
Wed 06:46:10 PM 39.1169 -81.0614 298° West 365 420 38,000  Level Indianapolis Center
Wed 06:47:12 PM 39.1644 -81.1775 298° West 369 425 38,000  Level Indianapolis Center
Wed 06:48:14 PM 39.2119 -81.2917 298° West 366 421 38,000  Level Indianapolis Center
Wed 06:49:16 PM 39.2681 -81.4308 298° West 367 422 38,000  Level Indianapolis Center
Wed 06:50:18 PM 39.3156 -81.5472 298° West 368 423 38,000  Level Indianapolis Center
Wed 06:51:20 PM 39.3628 -81.6636 298° West 368 423 38,000  Level Indianapolis Center
Wed 06:52:22 PM 39.4097 -81.7806 297° West 367 422 38,000  Level Indianapolis Center
Wed 06:53:24 PM 39.4561 -81.8950 298° West 361 415 38,000  Level Indianapolis Center
Wed 06:54:25 PM 39.4997 -82.0075 297° West 352 405 38,000  Level Indianapolis Center
Wed 06:55:27 PM 39.5492 -82.1306 298° West 350 403 38,000  Level Indianapolis Center
Wed 06:56:29 PM 39.5936 -82.2425 297° West 349 402 38,000  Level Indianapolis Center
Wed 06:57:31 PM 39.6386 -82.3550 297° West 348 400 38,000  Level Indianapolis Center
Wed 06:58:33 PM 39.6897 -82.4869 297° West 350 403 38,000  Level Indianapolis Center
Wed 06:59:35 PM 39.7356 -82.6003 298° West 352 405 38,000  Level Indianapolis Center
Wed 07:00:37 PM 39.7794 -82.7150 296° West 352 405 38,000  Level Indianapolis Center
Wed 07:01:39 PM 39.8250 -82.8297 297° West 353 406 38,000  Level Indianapolis Center
Wed 07:02:40 PM 39.8694 -82.9456 297° West 356 410 38,000  Level Indianapolis Center
Wed 07:03:42 PM 39.9158 -83.0622 297° West 360 414 38,000  Level Indianapolis Center
Wed 07:04:44 PM 39.9608 -83.1808 296° West 364 419 38,000  Level Indianapolis Center
Wed 07:05:46 PM 40.0133 -83.3175 297° West 362 417 38,000  Level Indianapolis Center
Wed 07:06:48 PM 40.0581 -83.4356 296° West 365 420 38,000  Level Indianapolis Center
Wed 07:07:50 PM 40.1025 -83.5528 296° West 361 415 38,000  Level Indianapolis Center
Wed 07:08:51 PM 40.1472 -83.6706 296° West 361 415 38,000  Level Indianapolis Center
Wed 07:09:53 PM 40.1933 -83.7903 297° West 365 420 38,000 -145 Level Indianapolis Center
Wed 07:10:55 PM 40.2378 -83.9103 296° West 364 419 37,700 -774 Descending Indianapolis Center
Wed 07:12:59 PM 40.3606 -84.1608 303° West 386 444 35,600 -1,000 Descending Indianapolis Center
Wed 07:14:01 PM 40.4294 -84.2731 309° West 390 449 34,600 -927 Descending Indianapolis Center
Wed 07:15:02 PM 40.4972 -84.3831 309° West 385 443 33,700 -927 Descending Indianapolis Center
Wed 07:16:04 PM 40.5633 -84.4936 308° West 381 438 32,700 -968 Descending Indianapolis Center
Wed 07:17:06 PM 40.6306 -84.6053 308° West 385 443 31,700 -1,031 Descending Indianapolis Center
Wed 07:18:12 PM 40.7072 -84.7317 309° West 383 441 30,500 -797 Descending Chicago Center
Wed 07:19:14 PM 40.7700 -84.8369 308° West 370 426 30,000 -387 Descending Chicago Center
Wed 07:20:16 PM 40.8358 -84.9428 309° West 371 427 29,700 -629 Descending Chicago Center
Wed 07:21:18 PM 40.9231 -85.0242 325° Northwest 383 441 28,700 -823 Descending Chicago Center
Wed 07:22:20 PM 41.0078 -85.1097 323° Northwest 384 442 28,000 -339 Descending Chicago Center
Wed 07:23:22 PM 41.1072 -85.2075 323° Northwest 375 432 28,000 -194 Level Chicago Center
Wed 07:24:24 PM 41.1911 -85.2900 324° Northwest 373 429 27,600 -726 Descending Chicago Center
Wed 07:25:26 PM 41.2753 -85.3725 324° Northwest 375 432 26,500 -1,306 Descending Chicago Center
Wed 07:26:28 PM 41.3581 -85.4556 323° Northwest 372 428 24,900 -1,258 Descending Chicago Center
Wed 07:27:30 PM 41.4386 -85.5361 323° Northwest 361 415 23,900 -1,016 Descending Chicago Center
Wed 07:28:32 PM 41.4917 -85.6364 305° West 343 395 22,800 -1,016 Descending Chicago Center
Wed 07:29:34 PM 41.5017 -85.7572 276° West 327 376 21,800 -1,452 Descending Chicago Center
Wed 07:30:36 PM 41.5119 -85.8761 277° West 322 371 19,800 -2,081 Descending Chicago Center
Wed 07:31:38 PM 41.5233 -86.0125 276° West 308 354 17,500 -2,032 Descending Chicago Center
Wed 07:32:40 PM 41.5244 -86.1231 271° West 301 346 15,600 -1,887 Descending Chicago Center
Wed 07:33:42 PM 41.5236 -86.2319 269° West 293 337 13,600 -1,824 Descending Chicago Center
Wed 07:34:45 PM 41.5228 -86.3378 269° West 288 331 11,800 -1,536 Descending Chicago Center
Wed 07:35:47 PM 41.5222 -86.4411 270° West 280 322 10,400 -871 Descending Chicago Center
Wed 07:36:49 PM 41.5225 -86.5469 270° West 284 327 10,000 -823 Descending Chicago Center
Wed 07:37:51 PM 41.5214 -86.6619 269° West 258 297 8,700 -1,452 Descending Chicago Center
Wed 07:38:53 PM 41.5200 -86.7633 269° West 259 298 7,000 -1,306 Descending Chicago Center
Wed 07:39:55 PM 41.5192 -86.8561 269° West 256 295 6,000 -484 Descending Chicago Center
Wed 07:40:57 PM 41.5183 -86.9478 269° West 250 288 6,000  Level Chicago Center
Wed 07:41:59 PM 41.5178 -87.0389 270° West 247 284 6,000  Level Chicago Center
Wed 07:43:01 PM 41.5422 -87.1242 291° West 244 281 6,000  Level Chicago Center
Wed 07:43:47 PM 41.5667 -87.2000 293° West 250 288 6,000  Level Chicago TRACON
Wed 07:44:47 PM 41.5833 -87.3000 283° West 248 285 6,000 -100 Level Chicago TRACON
Wed 07:45:47 PM 41.6167 -87.3833 298° West 248 285 5,800 -370 Descending Chicago TRACON
Wed 07:46:08 PM 41.6161 -87.4014 268° West 249 287 5,500 -651 Descending Chicago Center
Wed 07:47:10 PM 41.6372 -87.4831 289° West 243 280 4,900 -750 Descending Chicago Center
Wed 07:48:48 PM 41.6833 -87.6000 298° West 212 244 3,500 -919 Descending Chicago TRACON
Wed 07:49:14 PM 41.6947 -87.6267 300° West 210 242 3,000 -1,100 Descending Chicago Center
Wed 07:49:48 PM 41.7167 -87.6500 322° Northwest 198 228 2,400 -830 Descending Chicago TRACON
Wed 07:50:48 PM 41.7500 -87.7000 312° West 183 211 1,700 -400 Descending Chicago TRACON
Wed 07:51:48 PM 41.8000 -87.7000 360° North 162 186 1,600 -234 Descending Chicago TRACON
Wed 07:53:22 PM 41.7850 -87.7519 249° West 164 189 1,100 -319 Descending Chicago Center

Login

Don't have an account? Register now (free) for customized features, flight alerts, and more!